Latest Weather Observations for St Kilda Harbour RMYS

IDV60901

Issued at 8:15 am EDT Saturday 1 November 2014 (issued every 10 minutes, with the page automatically refreshed every 10 minutes)

About weather observations | Map of Melbourne area stations | Latest observations for Melbourne area | Other Formats
Station Details ID: 086220 Name: ST KILDA HARBOUR - RMYS Lat: -37.86 Lon: 144.96 Height: 6.4 m
Data from the previous 72 hours. | See also: Recent months for locations in Victoria
Date/Time
EDT
Tmp

°C
App
Tmp
°C
Dew
Point
°C
Rel
Hum
%
Delta-T

°C
Wind Press
QNH
hPa
Press
MSL
hPa
Rain
since
9 am
mm
Dir
 
Spd
km/h
Gust
km/h
Spd
kts
Gust
kts
01/08:00am - - - - - W 41 56 22 30 - - -
01/07:44am - - - - - W 28 46 15 25 - - -
01/07:30am - - - - - W 24 33 13 18 - - -
01/07:00am - - - - - W 17 20 9 11 - - -
01/06:30am - - - - - W 22 26 12 14 - - -
01/06:00am - - - - - WSW 33 39 18 21 - - -
01/05:30am - - - - - WSW 20 28 11 15 - - -
01/05:00am - - - - - W 13 20 7 11 - - -
01/04:30am - - - - - WSW 15 19 8 10 - - -
01/04:00am - - - - - WNW 9 13 5 7 - - -
01/03:30am - - - - - W 13 15 7 8 - - -
01/03:00am - - - - - SSW 20 24 11 13 - - -
01/02:30am - - - - - WSW 32 41 17 22 - - -
01/02:00am - - - - - W 30 39 16 21 - - -
01/01:30am - - - - - WSW 41 46 22 25 - - -
01/01:03am - - - - - WSW 28 46 15 25 - - -
01/01:00am - - - - - WSW 26 33 14 18 - - -
01/12:30am - - - - - S 13 15 7 8 - - -
01/12:00am - - - - - S 28 33 15 18 - - -
 
Date/Time
EDT
Tmp

°C
App
Tmp
°C
Dew
Point
°C
Rel
Hum
%
Delta-T

°C
Wind Press
QNH
hPa
Press
MSL
hPa
Rain
since
9 am
mm
Dir
 
Spd
km/h
Gust
km/h
Spd
kts
Gust
kts
31/11:37pm - - - - - SSW 35 41 19 22 - - -
31/11:30pm - - - - - SW 57 69 31 37 - - -
31/11:24pm - - - - - SW 57 67 31 36 - - -
31/11:20pm - - - - - WSW 39 59 21 32 - - -
31/11:15pm - - - - - W 32 48 17 26 - - -
31/11:00pm - - - - - NNW 22 28 12 15 - - -
31/10:30pm - - - - - N 19 26 10 14 - - -
31/10:00pm - - - - - N 24 35 13 19 - - -
31/09:30pm - - - - - N 17 28 9 15 - - -
31/09:00pm - - - - - N 17 24 9 13 - - -
31/08:30pm - - - - - N 19 26 10 14 - - -
31/08:00pm - - - - - N 17 24 9 13 - - -
31/07:30pm - - - - - N 17 24 9 13 - - -
31/07:00pm - - - - - N 13 20 7 11 - - -
31/06:30pm - - - - - NNW 24 35 13 19 - - -
31/06:00pm - - - - - NNW 26 41 14 22 - - -
31/05:30pm - - - - - N 30 46 16 25 - - -
31/05:00pm - - - - - NNW 39 54 21 29 - - -
31/04:30pm - - - - - NNW 39 59 21 32 - - -
31/04:08pm - - - - - N 37 56 20 30 - - -
31/04:00pm - - - - - NNW 37 52 20 28 - - -
31/03:34pm - - - - - NNW 35 56 19 30 - - -
31/03:30pm - - - - - NNW 35 48 19 26 - - -
31/03:14pm - - - - - NW 41 54 22 29 - - -
31/03:03pm - - - - - N 32 54 17 29 - - -
31/03:00pm - - - - - N 30 44 16 24 - - -
31/02:44pm - - - - - N 28 50 15 27 - - -
31/02:30pm - - - - - N 26 39 14 21 - - -
31/02:10pm - - - - - N 28 46 15 25 - - -
31/02:00pm - - - - - N 30 46 16 25 - - -
31/01:30pm - - - - - N 35 44 19 24 - - -
31/01:00pm - - - - - N 32 46 17 25 - - -
31/12:30pm - - - - - N 28 43 15 23 - - -
31/12:00pm - - - - - NNE 26 35 14 19 - - -
31/11:30am - - - - - N 24 33 13 18 - - -
31/11:00am - - - - - NNE 11 24 6 13 - - -
31/10:30am - - - - - NE 11 19 6 10 - - -
31/10:00am - - - - - NNE 11 20 6 11 - - -
31/09:30am - - - - - NNE 13 19 7 10 - - -
31/09:00am - - - - - NNE 9 13 5 7 - - -
31/08:30am - - - - - NNE 9 13 5 7 - - -
31/08:00am - - - - - NE 9 11 5 6 - - -
31/07:30am - - - - - NNE 9 15 5 8 - - -
31/07:00am - - - - - NNE 9 11 5 6 - - -
31/06:30am - - - - - NE 4 6 2 3 - - -
31/06:00am - - - - - N 7 9 4 5 - - -
31/05:30am - - - - - NNE 6 9 3 5 - - -
31/05:00am - - - - - NNE 11 17 6 9 - - -
31/04:30am - - - - - NNE 9 15 5 8 - - -
31/04:00am - - - - - NE 9 13 5 7 - - -
31/03:30am - - - - - NE 6 9 3 5 - - -
31/03:00am - - - - - ENE 7 11 4 6 - - -
31/02:30am - - - - - ENE 6 9 3 5 - - -
31/02:00am - - - - - E 7 9 4 5 - - -
31/01:30am - - - - - E 7 9 4 5 - - -
31/01:00am - - - - - ESE 4 7 2 4 - - -
31/12:30am - - - - - ESE 7 11 4 6 - - -
31/12:00am - - - - - SE 9 13 5 7 - - -
 
Date/Time
EDT
Tmp

°C
App
Tmp
°C
Dew
Point
°C
Rel
Hum
%
Delta-T

°C
Wind Press
QNH
hPa
Press
MSL
hPa
Rain
since
9 am
mm
Dir
 
Spd
km/h
Gust
km/h
Spd
kts
Gust
kts
30/11:30pm - - - - - SE 13 20 7 11 - - -
30/11:00pm - - - - - SE 15 20 8 11 - - -
30/10:30pm - - - - - SE 13 19 7 10 - - -
30/10:00pm - - - - - SE 17 22 9 12 - - -
30/09:30pm - - - - - SE 19 24 10 13 - - -
30/09:00pm - - - - - SE 19 24 10 13 - - -
30/08:30pm - - - - - SSE 22 32 12 17 - - -
30/08:00pm - - - - - S 24 28 13 15 - - -
30/07:30pm - - - - - S 20 24 11 13 - - -
30/07:00pm - - - - - S 20 24 11 13 - - -
30/06:30pm - - - - - S 22 26 12 14 - - -
30/06:00pm - - - - - S 24 30 13 16 - - -
30/05:30pm - - - - - S 26 30 14 16 - - -
30/05:00pm - - - - - S 28 32 15 17 - - -
30/04:30pm - - - - - S 26 30 14 16 - - -
30/04:00pm - - - - - SSE 28 30 15 16 - - -
30/03:30pm - - - - - S 19 22 10 12 - - -
30/03:00pm - - - - - S 19 20 10 11 - - -
30/02:30pm - - - - - S 17 20 9 11 - - -
30/02:00pm - - - - - S 20 24 11 13 - - -
30/01:30pm - - - - - S 22 26 12 14 - - -
30/01:00pm - - - - - S 22 28 12 15 - - -
30/12:30pm - - - - - SSE 13 17 7 9 - - -
30/12:00pm - - - - - SSE 13 17 7 9 - - -
30/11:30am - - - - - S 13 17 7 9 - - -
30/11:00am - - - - - S 17 20 9 11 - - -
30/10:30am - - - - - SSW 20 24 11 13 - - -
30/10:00am - - - - - WSW 17 24 9 13 - - -
30/09:30am - - - - - WSW 13 19 7 10 - - -
30/09:00am - - - - - WSW 20 24 11 13 - - -
30/08:30am - - - - - WSW 22 26 12 14 - - -
30/08:00am - - - - - WSW 24 30 13 16 - - -
30/07:30am - - - - - W 19 22 10 12 - - -
30/07:00am - - - - - W 20 28 11 15 - - -
30/06:30am - - - - - W 11 15 6 8 - - -
30/06:00am - - - - - W 11 15 6 8 - - -
30/05:30am - - - - - WSW 15 19 8 10 - - -
30/05:00am - - - - - WSW 11 15 6 8 - - -
30/04:30am - - - - - W 6 7 3 4 - - -
30/04:00am - - - - - WNW 6 7 3 4 - - -
30/03:30am - - - - - W 6 9 3 5 - - -
30/03:00am - - - - - NW 7 11 4 6 - - -
30/02:30am - - - - - NW 9 13 5 7 - - -
30/02:00am - - - - - N 6 7 3 4 - - -
30/01:30am - - - - - N 4 6 2 3 - - -
30/01:00am - - - - - NNE 4 6 2 3 - - -
30/12:30am - - - - - E 2 4 1 2 - - -
30/12:00am - - - - - ENE 4 6 2 3 - - -
 
Date/Time
EDT
Tmp

°C
App
Tmp
°C
Dew
Point
°C
Rel
Hum
%
Delta-T

°C
Wind Press
QNH
hPa
Press
MSL
hPa
Rain
since
9 am
mm
Dir
 
Spd
km/h
Gust
km/h
Spd
kts
Gust
kts
29/11:30pm - - - - - E 6 7 3 4 - - -
29/11:00pm - - - - - E 9 13 5 7 - - -
29/10:30pm - - - - - ESE 11 17 6 9 - - -
29/10:00pm - - - - - ESE 15 20 8 11 - - -
29/09:30pm - - - - - SSE 17 20 9 11 - - -
29/09:00pm - - - - - SSE 19 24 10 13 - - -
29/08:30pm - - - - - S 28 32 15 17 - - -
29/08:00pm - - - - - S 32 37 17 20 - - -
29/07:30pm - - - - - S 28 33 15 18 - - -
29/07:00pm - - - - - S 32 35 17 19 - - -
29/06:30pm - - - - - S 33 37 18 20 - - -
29/06:00pm - - - - - SSE 17 24 9 13 - - -
29/05:30pm - - - - - SSE 13 17 7 9 - - -
29/05:00pm - - - - - S 20 24 11 13 - - -
29/04:30pm - - - - - S 22 24 12 13 - - -
29/04:00pm - - - - - S 24 28 13 15 - - -
29/03:30pm - - - - - S 22 26 12 14 - - -
29/03:00pm - - - - - S 22 24 12 13 - - -
29/02:30pm - - - - - S 13 17 7 9 - - -
29/02:00pm - - - - - SSE 13 15 7 8 - - -
29/01:30pm - - - - - S 13 17 7 9 - - -
29/01:00pm - - - - - SSW 13 15 7 8 - - -
29/12:30pm - - - - - W 7 9 4 5 - - -
29/12:00pm - - - - - WNW 11 19 6 10 - - -
29/11:30am - - - - - WNW 11 19 6 10 - - -
29/11:00am - - - - - WNW 19 26 10 14 - - -
29/10:30am - - - - - W 9 20 5 11 - - -
29/10:00am - - - - - NW 13 17 7 9 - - -
29/09:30am - - - - - WNW 13 20 7 11 - - -
29/09:00am - - - - - WNW 13 15 7 8 - - -
29/08:30am - - - - - WNW 17 20 9 11 - - -

Latest Capital City Observations: Canberra | Sydney | Melbourne | Brisbane | Adelaide | Perth | Hobart | Darwin

Other Formats:

Comma delimited format used in spreadsheet applications
http://www.bom.gov.au/fwo/IDV60901/IDV60901.95864.axf

JavaScript Object Notation format (JSON) in row-major order
http://www.bom.gov.au/fwo/IDV60901/IDV60901.95864.json